sensor_id;sensor_type;location;lat;lon;timestamp;temperature;humidity
4677;DHT22;2352;48.180;11.478;2023-05-14T00:01:45;13.20;99.90
4677;DHT22;2352;48.180;11.478;2023-05-14T00:04:48;13.20;99.90
4677;DHT22;2352;48.180;11.478;2023-05-14T00:07:52;13.20;99.90
4677;DHT22;2352;48.180;11.478;2023-05-14T00:10:55;13.20;99.90
4677;DHT22;2352;48.180;11.478;2023-05-14T00:13:58;13.20;99.90
4677;DHT22;2352;48.180;11.478;2023-05-14T00:17:01;13.10;99.90
4677;DHT22;2352;48.180;11.478;2023-05-14T00:20:05;13.10;99.90
4677;DHT22;2352;48.180;11.478;2023-05-14T00:23:10;13.10;99.90
4677;DHT22;2352;48.180;11.478;2023-05-14T00:26:12;13.00;99.90
4677;DHT22;2352;48.180;11.478;2023-05-14T00:29:15;13.00;99.90
4677;DHT22;2352;48.180;11.478;2023-05-14T00:32:18;13.00;99.90
4677;DHT22;2352;48.180;11.478;2023-05-14T00:35:21;13.00;99.90
4677;DHT22;2352;48.180;11.478;2023-05-14T00:38:26;13.10;99.90
4677;DHT22;2352;48.180;11.478;2023-05-14T00:41:29;13.10;99.90
4677;DHT22;2352;48.180;11.478;2023-05-14T00:44:32;13.00;99.90
4677;DHT22;2352;48.180;11.478;2023-05-14T00:47:35;13.00;99.90
4677;DHT22;2352;48.180;11.478;2023-05-14T00:50:39;13.10;99.90
4677;DHT22;2352;48.180;11.478;2023-05-14T00:53:44;13.00;99.90
4677;DHT22;2352;48.180;11.478;2023-05-14T00:56:47;12.90;99.90
4677;DHT22;2352;48.180;11.478;2023-05-14T00:59:50;12.90;99.90
4677;DHT22;2352;48.180;11.478;2023-05-14T01:02:53;12.90;99.90
4677;DHT22;2352;48.180;11.478;2023-05-14T01:06:00;12.90;99.90
4677;DHT22;2352;48.180;11.478;2023-05-14T01:09:11;12.90;99.90
4677;DHT22;2352;48.180;11.478;2023-05-14T01:12:20;12.90;99.90
4677;DHT22;2352;48.180;11.478;2023-05-14T01:15:25;12.90;99.90
4677;DHT22;2352;48.180;11.478;2023-05-14T01:18:31;12.80;99.90
4677;DHT22;2352;48.180;11.478;2023-05-14T01:21:37;12.80;99.90
4677;DHT22;2352;48.180;11.478;2023-05-14T01:24:41;12.80;99.90
4677;DHT22;2352;48.180;11.478;2023-05-14T01:27:54;12.80;99.90
4677;DHT22;2352;48.180;11.478;2023-05-14T01:31:06;12.80;99.90
4677;DHT22;2352;48.180;11.478;2023-05-14T01:34:11;12.80;99.90
4677;DHT22;2352;48.180;11.478;2023-05-14T01:37:16;12.80;99.90
4677;DHT22;2352;48.180;11.478;2023-05-14T01:40:19;12.80;99.90
4677;DHT22;2352;48.180;11.478;2023-05-14T01:43:23;12.80;99.90
4677;DHT22;2352;48.180;11.478;2023-05-14T01:46:30;12.80;99.90
4677;DHT22;2352;48.180;11.478;2023-05-14T01:49:33;12.80;99.90
4677;DHT22;2352;48.180;11.478;2023-05-14T01:52:39;12.80;99.90
4677;DHT22;2352;48.180;11.478;2023-05-14T01:55:42;12.80;99.90
4677;DHT22;2352;48.180;11.478;2023-05-14T01:58:44;12.80;99.90
4677;DHT22;2352;48.180;11.478;2023-05-14T02:01:47;12.80;99.90
4677;DHT22;2352;48.180;11.478;2023-05-14T02:04:51;12.80;99.90
4677;DHT22;2352;48.180;11.478;2023-05-14T02:07:55;12.70;99.90
4677;DHT22;2352;48.180;11.478;2023-05-14T02:10:58;12.70;99.90
4677;DHT22;2352;48.180;11.478;2023-05-14T02:14:01;12.70;99.90
4677;DHT22;2352;48.180;11.478;2023-05-14T02:17:04;12.70;99.90
4677;DHT22;2352;48.180;11.478;2023-05-14T02:20:08;12.60;99.90
4677;DHT22;2352;48.180;11.478;2023-05-14T02:23:13;12.70;99.90
4677;DHT22;2352;48.180;11.478;2023-05-14T02:26:15;12.60;99.90
4677;DHT22;2352;48.180;11.478;2023-05-14T02:29:18;12.60;99.90
4677;DHT22;2352;48.180;11.478;2023-05-14T02:32:21;12.60;99.90
4677;DHT22;2352;48.180;11.478;2023-05-14T02:35:24;12.60;99.90
4677;DHT22;2352;48.180;11.478;2023-05-14T02:38:28;12.50;99.90
4677;DHT22;2352;48.180;11.478;2023-05-14T02:41:31;12.50;99.90
4677;DHT22;2352;48.180;11.478;2023-05-14T02:44:34;12.50;99.90
4677;DHT22;2352;48.180;11.478;2023-05-14T02:47:36;12.50;99.90
4677;DHT22;2352;48.180;11.478;2023-05-14T02:50:39;12.40;99.90
4677;DHT22;2352;48.180;11.478;2023-05-14T02:53:43;12.40;99.90
4677;DHT22;2352;48.180;11.478;2023-05-14T02:56:46;12.40;99.90
4677;DHT22;2352;48.180;11.478;2023-05-14T02:59:49;12.40;99.90
4677;DHT22;2352;48.180;11.478;2023-05-14T03:02:52;12.40;99.90
4677;DHT22;2352;48.180;11.478;2023-05-14T03:05:56;12.40;99.90
4677;DHT22;2352;48.180;11.478;2023-05-14T03:09:00;12.40;99.90
4677;DHT22;2352;48.180;11.478;2023-05-14T03:12:03;12.30;99.90
4677;DHT22;2352;48.180;11.478;2023-05-14T03:15:06;12.30;99.90
4677;DHT22;2352;48.180;11.478;2023-05-14T03:18:09;12.40;99.90
4677;DHT22;2352;48.180;11.478;2023-05-14T03:21:12;12.40;99.90
4677;DHT22;2352;48.180;11.478;2023-05-14T03:24:16;12.40;99.90
4677;DHT22;2352;48.180;11.478;2023-05-14T03:27:19;12.40;99.90
4677;DHT22;2352;48.180;11.478;2023-05-14T03:30:22;12.30;99.90
4677;DHT22;2352;48.180;11.478;2023-05-14T03:33:25;12.30;99.90
4677;DHT22;2352;48.180;11.478;2023-05-14T03:36:28;12.30;99.90
4677;DHT22;2352;48.180;11.478;2023-05-14T03:39:33;12.30;99.90
4677;DHT22;2352;48.180;11.478;2023-05-14T03:42:36;12.30;99.90
4677;DHT22;2352;48.180;11.478;2023-05-14T03:45:41;12.30;99.90
4677;DHT22;2352;48.180;11.478;2023-05-14T03:48:44;12.30;99.90
4677;DHT22;2352;48.180;11.478;2023-05-14T03:51:47;12.30;99.90
4677;DHT22;2352;48.180;11.478;2023-05-14T03:54:51;12.30;99.90
4677;DHT22;2352;48.180;11.478;2023-05-14T03:57:54;12.30;99.90
4677;DHT22;2352;48.180;11.478;2023-05-14T04:00:57;12.30;99.90
4677;DHT22;2352;48.180;11.478;2023-05-14T04:04:00;12.30;99.90
4677;DHT22;2352;48.180;11.478;2023-05-14T04:07:03;12.30;99.90
4677;DHT22;2352;48.180;11.478;2023-05-14T04:10:08;12.20;99.90
4677;DHT22;2352;48.180;11.478;2023-05-14T04:13:11;12.30;99.90
4677;DHT22;2352;48.180;11.478;2023-05-14T04:16:14;12.30;99.90
4677;DHT22;2352;48.180;11.478;2023-05-14T04:19:17;12.30;99.90
4677;DHT22;2352;48.180;11.478;2023-05-14T04:22:20;12.30;99.90
4677;DHT22;2352;48.180;11.478;2023-05-14T04:25:24;12.30;99.90
4677;DHT22;2352;48.180;11.478;2023-05-14T04:28:27;12.30;99.90
4677;DHT22;2352;48.180;11.478;2023-05-14T04:31:29;12.30;99.90
4677;DHT22;2352;48.180;11.478;2023-05-14T04:34:33;12.30;99.90
4677;DHT22;2352;48.180;11.478;2023-05-14T04:37:36;12.30;99.90
4677;DHT22;2352;48.180;11.478;2023-05-14T04:40:40;12.30;99.90
4677;DHT22;2352;48.180;11.478;2023-05-14T04:43:43;12.30;99.90
4677;DHT22;2352;48.180;11.478;2023-05-14T04:46:46;12.30;99.90
4677;DHT22;2352;48.180;11.478;2023-05-14T04:49:49;12.40;99.90
4677;DHT22;2352;48.180;11.478;2023-05-14T04:52:52;12.40;99.90
4677;DHT22;2352;48.180;11.478;2023-05-14T04:55:58;12.30;99.90
4677;DHT22;2352;48.180;11.478;2023-05-14T04:59:00;12.30;99.90
4677;DHT22;2352;48.180;11.478;2023-05-14T05:02:03;12.40;99.90
4677;DHT22;2352;48.180;11.478;2023-05-14T05:05:07;12.40;99.90
4677;DHT22;2352;48.180;11.478;2023-05-14T05:08:10;12.40;99.90
4677;DHT22;2352;48.180;11.478;2023-05-14T05:11:14;12.30;99.90
4677;DHT22;2352;48.180;11.478;2023-05-14T05:14:17;12.30;99.90
4677;DHT22;2352;48.180;11.478;2023-05-14T05:17:20;12.40;99.90
4677;DHT22;2352;48.180;11.478;2023-05-14T05:20:23;12.40;99.90
4677;DHT22;2352;48.180;11.478;2023-05-14T05:23:28;12.30;99.90
4677;DHT22;2352;48.180;11.478;2023-05-14T05:26:32;12.30;99.90
4677;DHT22;2352;48.180;11.478;2023-05-14T05:29:37;12.30;99.90
4677;DHT22;2352;48.180;11.478;2023-05-14T05:32:40;12.20;99.90
4677;DHT22;2352;48.180;11.478;2023-05-14T05:35:42;12.30;99.90
4677;DHT22;2352;48.180;11.478;2023-05-14T05:38:46;12.40;99.90
4677;DHT22;2352;48.180;11.478;2023-05-14T05:41:50;12.30;99.90
4677;DHT22;2352;48.180;11.478;2023-05-14T05:44:53;12.30;99.90
4677;DHT22;2352;48.180;11.478;2023-05-14T05:47:55;12.40;99.90
4677;DHT22;2352;48.180;11.478;2023-05-14T05:50:58;12.30;99.90
4677;DHT22;2352;48.180;11.478;2023-05-14T05:54:01;12.40;99.90
4677;DHT22;2352;48.180;11.478;2023-05-14T05:57:05;12.40;99.90
4677;DHT22;2352;48.180;11.478;2023-05-14T06:00:09;12.40;99.90
4677;DHT22;2352;48.180;11.478;2023-05-14T06:03:15;12.30;99.90
4677;DHT22;2352;48.180;11.478;2023-05-14T06:06:18;12.30;99.90
4677;DHT22;2352;48.180;11.478;2023-05-14T06:09:22;12.40;99.90
4677;DHT22;2352;48.180;11.478;2023-05-14T06:12:26;12.30;99.90
4677;DHT22;2352;48.180;11.478;2023-05-14T06:15:29;12.40;99.90
4677;DHT22;2352;48.180;11.478;2023-05-14T06:18:32;12.40;99.90
4677;DHT22;2352;48.180;11.478;2023-05-14T06:21:35;12.30;99.90
4677;DHT22;2352;48.180;11.478;2023-05-14T06:24:37;12.20;99.90
4677;DHT22;2352;48.180;11.478;2023-05-14T06:27:42;12.30;99.90
4677;DHT22;2352;48.180;11.478;2023-05-14T06:30:45;12.30;99.90
4677;DHT22;2352;48.180;11.478;2023-05-14T06:33:47;12.40;99.90
4677;DHT22;2352;48.180;11.478;2023-05-14T06:36:50;12.60;99.90
4677;DHT22;2352;48.180;11.478;2023-05-14T06:39:53;12.90;99.90
4677;DHT22;2352;48.180;11.478;2023-05-14T06:43:00;12.90;99.90
4677;DHT22;2352;48.180;11.478;2023-05-14T06:46:02;12.80;99.90
4677;DHT22;2352;48.180;11.478;2023-05-14T06:49:05;12.90;99.90
4677;DHT22;2352;48.180;11.478;2023-05-14T06:52:08;13.10;99.90
4677;DHT22;2352;48.180;11.478;2023-05-14T06:55:11;13.30;99.90
4677;DHT22;2352;48.180;11.478;2023-05-14T06:58:15;13.30;99.90
4677;DHT22;2352;48.180;11.478;2023-05-14T07:01:18;13.50;99.90
4677;DHT22;2352;48.180;11.478;2023-05-14T13:34:35;18.30;97.50
4677;DHT22;2352;48.180;11.478;2023-05-14T13:37:41;18.30;98.30
4677;DHT22;2352;48.180;11.478;2023-05-14T13:40:44;18.50;98.40
4677;DHT22;2352;48.180;11.478;2023-05-14T13:43:47;18.80;98.10
4677;DHT22;2352;48.180;11.478;2023-05-14T13:46:50;19.00;96.50
4677;DHT22;2352;48.180;11.478;2023-05-14T13:49:53;19.10;98.40
4677;DHT22;2352;48.180;11.478;2023-05-14T13:52:58;18.90;97.90
4677;DHT22;2352;48.180;11.478;2023-05-14T13:56:01;19.00;95.90
4677;DHT22;2352;48.180;11.478;2023-05-14T13:59:04;19.10;97.10
4677;DHT22;2352;48.180;11.478;2023-05-14T14:02:07;19.20;96.90
4677;DHT22;2352;48.180;11.478;2023-05-14T14:05:10;19.30;97.00
4677;DHT22;2352;48.180;11.478;2023-05-14T14:08:14;19.40;96.80
4677;DHT22;2352;48.180;11.478;2023-05-14T14:11:24;19.40;95.10
4677;DHT22;2352;48.180;11.478;2023-05-14T14:14:27;19.40;96.80
4677;DHT22;2352;48.180;11.478;2023-05-14T14:17:30;19.50;96.60
4677;DHT22;2352;48.180;11.478;2023-05-14T14:20:34;19.60;96.40
4677;DHT22;2352;48.180;11.478;2023-05-14T14:23:38;19.60;95.70
4677;DHT22;2352;48.180;11.478;2023-05-14T14:26:42;19.60;96.20
4677;DHT22;2352;48.180;11.478;2023-05-14T14:29:44;19.50;96.80
4677;DHT22;2352;48.180;11.478;2023-05-14T14:32:48;19.60;96.60
4677;DHT22;2352;48.180;11.478;2023-05-14T14:35:51;19.50;93.60
4677;DHT22;2352;48.180;11.478;2023-05-14T14:38:55;19.50;95.40
4677;DHT22;2352;48.180;11.478;2023-05-14T14:41:58;19.60;94.50
4677;DHT22;2352;48.180;11.478;2023-05-14T14:45:01;19.50;94.00
4677;DHT22;2352;48.180;11.478;2023-05-14T14:48:22;19.30;93.70
4677;DHT22;2352;48.180;11.478;2023-05-14T14:51:25;19.00;95.30
4677;DHT22;2352;48.180;11.478;2023-05-14T14:54:29;19.00;95.30
4677;DHT22;2352;48.180;11.478;2023-05-14T14:57:32;19.00;95.70
4677;DHT22;2352;48.180;11.478;2023-05-14T15:00:35;19.10;95.30
4677;DHT22;2352;48.180;11.478;2023-05-14T15:03:38;19.10;93.50
4677;DHT22;2352;48.180;11.478;2023-05-14T15:06:41;19.00;95.60
4677;DHT22;2352;48.180;11.478;2023-05-14T15:09:45;18.90;92.30
4677;DHT22;2352;48.180;11.478;2023-05-14T15:12:48;18.80;95.10
4677;DHT22;2352;48.180;11.478;2023-05-14T15:15:52;18.70;94.20
4677;DHT22;2352;48.180;11.478;2023-05-14T15:18:55;18.70;95.10
4677;DHT22;2352;48.180;11.478;2023-05-14T15:21:58;18.70;94.70
4677;DHT22;2352;48.180;11.478;2023-05-14T15:25:02;18.60;95.70
4677;DHT22;2352;48.180;11.478;2023-05-14T15:28:05;18.60;95.10
4677;DHT22;2352;48.180;11.478;2023-05-14T15:31:08;18.70;95.90
4677;DHT22;2352;48.180;11.478;2023-05-14T15:34:11;18.80;94.70
4677;DHT22;2352;48.180;11.478;2023-05-14T15:37:14;18.80;95.20
4677;DHT22;2352;48.180;11.478;2023-05-14T15:40:18;18.80;93.70
4677;DHT22;2352;48.180;11.478;2023-05-14T15:43:21;18.70;94.00
4677;DHT22;2352;48.180;11.478;2023-05-14T15:46:24;18.70;95.90
4677;DHT22;2352;48.180;11.478;2023-05-14T15:49:27;18.70;93.80
4677;DHT22;2352;48.180;11.478;2023-05-14T15:52:30;18.70;95.20
4677;DHT22;2352;48.180;11.478;2023-05-14T15:55:34;18.80;96.00
4677;DHT22;2352;48.180;11.478;2023-05-14T15:58:37;18.70;96.00
4677;DHT22;2352;48.180;11.478;2023-05-14T16:01:40;18.40;96.00
4677;DHT22;2352;48.180;11.478;2023-05-14T16:04:42;18.00;96.20
4677;DHT22;2352;48.180;11.478;2023-05-14T16:07:46;17.90;96.90
4677;DHT22;2352;48.180;11.478;2023-05-14T16:10:50;17.50;96.90
4677;DHT22;2352;48.180;11.478;2023-05-14T16:13:53;17.30;99.70
4677;DHT22;2352;48.180;11.478;2023-05-14T16:16:57;16.90;99.90
4677;DHT22;2352;48.180;11.478;2023-05-14T16:20:00;16.70;99.90
4677;DHT22;2352;48.180;11.478;2023-05-14T16:23:02;16.50;99.90
4677;DHT22;2352;48.180;11.478;2023-05-14T16:26:07;16.20;99.90
4677;DHT22;2352;48.180;11.478;2023-05-14T16:29:10;16.20;99.90
4677;DHT22;2352;48.180;11.478;2023-05-14T16:32:13;16.10;99.90
4677;DHT22;2352;48.180;11.478;2023-05-14T16:35:16;16.00;99.90
4677;DHT22;2352;48.180;11.478;2023-05-14T16:38:18;16.00;99.90
4677;DHT22;2352;48.180;11.478;2023-05-14T16:41:22;15.90;99.90
4677;DHT22;2352;48.180;11.478;2023-05-14T16:44:25;15.80;99.90
4677;DHT22;2352;48.180;11.478;2023-05-14T16:47:28;15.60;99.90
4677;DHT22;2352;48.180;11.478;2023-05-14T16:50:31;15.60;99.90
4677;DHT22;2352;48.180;11.478;2023-05-14T16:53:34;15.40;99.90
4677;DHT22;2352;48.180;11.478;2023-05-14T16:56:38;15.30;99.90
4677;DHT22;2352;48.180;11.478;2023-05-14T16:59:41;15.30;99.90
4677;DHT22;2352;48.180;11.478;2023-05-14T17:02:44;15.30;99.90
